sensor_id;sensor_type;location;lat;lon;timestamp;temperature;humidity
29353;DHT22;16344;50.364;8.944;2024-03-23T00:53:39;11.90;99.90
29353;DHT22;16344;50.364;8.944;2024-03-23T00:56:05;11.80;99.90
29353;DHT22;16344;50.364;8.944;2024-03-23T00:58:30;11.70;99.90
29353;DHT22;16344;50.364;8.944;2024-03-23T01:00:58;11.70;99.90
29353;DHT22;16344;50.364;8.944;2024-03-23T01:03:25;11.60;99.90
29353;DHT22;16344;50.364;8.944;2024-03-23T01:05:51;11.50;99.90
29353;DHT22;16344;50.364;8.944;2024-03-23T01:08:20;11.50;99.90
29353;DHT22;16344;50.364;8.944;2024-03-23T01:10:57;11.50;99.90
29353;DHT22;16344;50.364;8.944;2024-03-23T01:13:24;11.50;99.90
29353;DHT22;16344;50.364;8.944;2024-03-23T01:15:51;11.50;99.90
29353;DHT22;16344;50.364;8.944;2024-03-23T01:18:17;11.40;99.90
29353;DHT22;16344;50.364;8.944;2024-03-23T01:20:46;11.40;99.90
29353;DHT22;16344;50.364;8.944;2024-03-23T01:23:14;11.30;99.90
29353;DHT22;16344;50.364;8.944;2024-03-23T01:25:41;11.30;99.90
29353;DHT22;16344;50.364;8.944;2024-03-23T01:28:07;11.20;99.90
29353;DHT22;16344;50.364;8.944;2024-03-23T01:30:38;11.20;99.90
29353;DHT22;16344;50.364;8.944;2024-03-23T01:33:05;11.30;99.90
29353;DHT22;16344;50.364;8.944;2024-03-23T01:35:31;11.40;99.90
29353;DHT22;16344;50.364;8.944;2024-03-23T01:37:57;11.40;99.90
29353;DHT22;16344;50.364;8.944;2024-03-23T01:40:23;11.30;99.90
29353;DHT22;16344;50.364;8.944;2024-03-23T01:43:03;11.40;99.90
29353;DHT22;16344;50.364;8.944;2024-03-23T01:45:30;11.30;99.90
29353;DHT22;16344;50.364;8.944;2024-03-23T01:47:56;11.40;99.90
29353;DHT22;16344;50.364;8.944;2024-03-23T01:50:22;11.40;99.90
29353;DHT22;16344;50.364;8.944;2024-03-23T01:52:49;11.40;99.90
29353;DHT22;16344;50.364;8.944;2024-03-23T01:55:16;11.30;99.90
29353;DHT22;16344;50.364;8.944;2024-03-23T01:57:42;11.00;99.90
29353;DHT22;16344;50.364;8.944;2024-03-23T02:00:08;11.00;99.90
29353;DHT22;16344;50.364;8.944;2024-03-23T02:02:47;10.90;99.90
29353;DHT22;16344;50.364;8.944;2024-03-23T02:05:15;11.10;99.90
29353;DHT22;16344;50.364;8.944;2024-03-23T02:07:44;11.00;99.90
29353;DHT22;16344;50.364;8.944;2024-03-23T02:10:11;11.10;99.90
29353;DHT22;16344;50.364;8.944;2024-03-23T02:12:42;11.20;99.90
29353;DHT22;16344;50.364;8.944;2024-03-23T02:15:08;11.30;99.90
29353;DHT22;16344;50.364;8.944;2024-03-23T02:17:35;11.20;99.90
29353;DHT22;16344;50.364;8.944;2024-03-23T02:20:02;11.20;99.90
29353;DHT22;16344;50.364;8.944;2024-03-23T02:22:39;11.20;99.90
29353;DHT22;16344;50.364;8.944;2024-03-23T02:25:05;11.10;99.90
29353;DHT22;16344;50.364;8.944;2024-03-23T02:27:31;11.10;99.90
29353;DHT22;16344;50.364;8.944;2024-03-23T02:29:57;11.10;99.90
29353;DHT22;16344;50.364;8.944;2024-03-23T02:32:22;11.10;99.90
29353;DHT22;16344;50.364;8.944;2024-03-23T02:34:48;11.10;99.90
29353;DHT22;16344;50.364;8.944;2024-03-23T02:37:17;11.10;99.90
29353;DHT22;16344;50.364;8.944;2024-03-23T02:39:44;11.00;99.90
29353;DHT22;16344;50.364;8.944;2024-03-23T02:42:11;10.90;99.90
29353;DHT22;16344;50.364;8.944;2024-03-23T02:44:41;11.00;99.90
29353;DHT22;16344;50.364;8.944;2024-03-23T02:47:07;11.10;99.90
29353;DHT22;16344;50.364;8.944;2024-03-23T02:49:33;11.00;99.90
29353;DHT22;16344;50.364;8.944;2024-03-23T02:51:58;11.10;99.90
29353;DHT22;16344;50.364;8.944;2024-03-23T02:54:28;11.10;99.90
29353;DHT22;16344;50.364;8.944;2024-03-23T02:56:53;11.10;99.90
29353;DHT22;16344;50.364;8.944;2024-03-23T02:59:19;11.10;99.90
29353;DHT22;16344;50.364;8.944;2024-03-23T03:01:44;11.00;99.90
29353;DHT22;16344;50.364;8.944;2024-03-23T03:04:10;10.90;99.90
29353;DHT22;16344;50.364;8.944;2024-03-23T03:06:37;11.00;99.90
29353;DHT22;16344;50.364;8.944;2024-03-23T03:09:03;11.00;99.90
29353;DHT22;16344;50.364;8.944;2024-03-23T03:11:32;11.00;99.90
29353;DHT22;16344;50.364;8.944;2024-03-23T03:13:57;10.90;99.90
29353;DHT22;16344;50.364;8.944;2024-03-23T03:16:27;10.80;99.90
29353;DHT22;16344;50.364;8.944;2024-03-23T03:18:53;10.80;99.90
29353;DHT22;16344;50.364;8.944;2024-03-23T03:21:18;10.80;99.90
29353;DHT22;16344;50.364;8.944;2024-03-23T03:23:46;10.80;99.90
29353;DHT22;16344;50.364;8.944;2024-03-23T03:26:11;10.70;99.90
29353;DHT22;16344;50.364;8.944;2024-03-23T03:28:37;10.60;99.90
29353;DHT22;16344;50.364;8.944;2024-03-23T03:31:06;10.70;99.90
29353;DHT22;16344;50.364;8.944;2024-03-23T03:33:32;10.60;99.90
29353;DHT22;16344;50.364;8.944;2024-03-23T03:35:58;10.60;99.90
29353;DHT22;16344;50.364;8.944;2024-03-23T03:38:24;10.70;99.90
29353;DHT22;16344;50.364;8.944;2024-03-23T03:40:50;10.60;99.90
29353;DHT22;16344;50.364;8.944;2024-03-23T03:43:16;10.70;99.90
29353;DHT22;16344;50.364;8.944;2024-03-23T03:45:54;10.80;99.90
29353;DHT22;16344;50.364;8.944;2024-03-23T03:48:22;10.80;99.90
29353;DHT22;16344;50.364;8.944;2024-03-23T03:50:51;10.80;99.90
29353;DHT22;16344;50.364;8.944;2024-03-23T03:53:17;10.80;99.90
29353;DHT22;16344;50.364;8.944;2024-03-23T03:55:43;10.70;99.90
29353;DHT22;16344;50.364;8.944;2024-03-23T03:58:10;10.80;99.90
29353;DHT22;16344;50.364;8.944;2024-03-23T04:00:39;10.80;99.90
29353;DHT22;16344;50.364;8.944;2024-03-23T04:03:06;10.80;99.90
29353;DHT22;16344;50.364;8.944;2024-03-23T04:05:32;10.70;99.90
29353;DHT22;16344;50.364;8.944;2024-03-23T04:07:58;10.70;99.90
29353;DHT22;16344;50.364;8.944;2024-03-23T04:10:24;10.60;99.90
29353;DHT22;16344;50.364;8.944;2024-03-23T04:12:50;10.60;1.00
29353;DHT22;16344;50.364;8.944;2024-03-23T04:15:22;10.60;1.00
29353;DHT22;16344;50.364;8.944;2024-03-23T04:17:51;10.60;1.00
29353;DHT22;16344;50.364;8.944;2024-03-23T04:20:35;10.60;1.00
29353;DHT22;16344;50.364;8.944;2024-03-23T04:23:03;10.50;1.00
29353;DHT22;16344;50.364;8.944;2024-03-23T04:25:29;10.40;1.00
29353;DHT22;16344;50.364;8.944;2024-03-23T04:27:55;10.50;1.00
29353;DHT22;16344;50.364;8.944;2024-03-23T04:30:21;10.40;1.00
29353;DHT22;16344;50.364;8.944;2024-03-23T04:32:50;10.40;1.00
29353;DHT22;16344;50.364;8.944;2024-03-23T04:35:17;10.20;1.00
29353;DHT22;16344;50.364;8.944;2024-03-23T04:37:46;10.00;1.00
29353;DHT22;16344;50.364;8.944;2024-03-23T04:40:13;9.80;1.00
29353;DHT22;16344;50.364;8.944;2024-03-23T04:42:41;9.80;1.00
29353;DHT22;16344;50.364;8.944;2024-03-23T04:45:08;9.70;1.00
29353;DHT22;16344;50.364;8.944;2024-03-23T04:47:38;9.70;1.00
29353;DHT22;16344;50.364;8.944;2024-03-23T04:50:04;9.80;1.00
29353;DHT22;16344;50.364;8.944;2024-03-23T04:52:34;9.60;1.00
29353;DHT22;16344;50.364;8.944;2024-03-23T04:55:00;9.50;1.00
29353;DHT22;16344;50.364;8.944;2024-03-23T04:57:27;9.30;1.00
29353;DHT22;16344;50.364;8.944;2024-03-23T04:59:52;9.20;1.00
29353;DHT22;16344;50.364;8.944;2024-03-23T05:02:18;9.10;1.00
29353;DHT22;16344;50.364;8.944;2024-03-23T05:04:45;9.20;1.00
29353;DHT22;16344;50.364;8.944;2024-03-23T05:07:11;9.20;1.00
29353;DHT22;16344;50.364;8.944;2024-03-23T05:09:38;9.20;1.00
29353;DHT22;16344;50.364;8.944;2024-03-23T05:12:06;9.20;1.00
29353;DHT22;16344;50.364;8.944;2024-03-23T05:14:31;9.10;1.00
29353;DHT22;16344;50.364;8.944;2024-03-23T05:16:58;9.00;1.00
29353;DHT22;16344;50.364;8.944;2024-03-23T05:19:24;8.80;1.00
29353;DHT22;16344;50.364;8.944;2024-03-23T05:21:51;8.70;1.00
29353;DHT22;16344;50.364;8.944;2024-03-23T05:24:16;8.60;1.00
29353;DHT22;16344;50.364;8.944;2024-03-23T05:26:42;8.60;1.00
29353;DHT22;16344;50.364;8.944;2024-03-23T05:29:08;8.60;1.00
29353;DHT22;16344;50.364;8.944;2024-03-23T05:31:36;8.60;1.00
29353;DHT22;16344;50.364;8.944;2024-03-23T05:34:03;8.60;1.00
29353;DHT22;16344;50.364;8.944;2024-03-23T05:36:29;8.50;1.00
29353;DHT22;16344;50.364;8.944;2024-03-23T05:38:55;8.50;1.00
29353;DHT22;16344;50.364;8.944;2024-03-23T05:41:21;8.50;1.00
29353;DHT22;16344;50.364;8.944;2024-03-23T05:43:49;8.50;1.00
29353;DHT22;16344;50.364;8.944;2024-03-23T05:46:21;8.40;1.00
29353;DHT22;16344;50.364;8.944;2024-03-23T05:48:50;8.40;1.00
29353;DHT22;16344;50.364;8.944;2024-03-23T05:51:16;8.30;1.00
29353;DHT22;16344;50.364;8.944;2024-03-23T05:53:44;8.30;1.00
29353;DHT22;16344;50.364;8.944;2024-03-23T05:56:10;8.20;1.00
29353;DHT22;16344;50.364;8.944;2024-03-23T05:58:37;8.00;1.00
29353;DHT22;16344;50.364;8.944;2024-03-23T06:01:03;8.00;1.00
29353;DHT22;16344;50.364;8.944;2024-03-23T06:03:29;8.00;1.00
29353;DHT22;16344;50.364;8.944;2024-03-23T06:05:56;8.00;1.00
29353;DHT22;16344;50.364;8.944;2024-03-23T06:08:22;7.90;1.00
29353;DHT22;16344;50.364;8.944;2024-03-23T06:10:49;7.90;1.00
29353;DHT22;16344;50.364;8.944;2024-03-23T06:13:16;7.90;1.00
29353;DHT22;16344;50.364;8.944;2024-03-23T06:15:43;7.80;1.00
29353;DHT22;16344;50.364;8.944;2024-03-23T06:18:14;7.80;1.00
29353;DHT22;16344;50.364;8.944;2024-03-23T06:20:39;7.80;1.00
29353;DHT22;16344;50.364;8.944;2024-03-23T06:23:05;7.70;1.00
29353;DHT22;16344;50.364;8.944;2024-03-23T06:25:34;7.80;1.00
29353;DHT22;16344;50.364;8.944;2024-03-23T06:28:02;7.80;1.00
29353;DHT22;16344;50.364;8.944;2024-03-23T06:30:31;7.80;1.00
29353;DHT22;16344;50.364;8.944;2024-03-23T06:32:59;7.80;1.00
29353;DHT22;16344;50.364;8.944;2024-03-23T06:35:24;7.80;1.00
29353;DHT22;16344;50.364;8.944;2024-03-23T06:37:50;7.80;1.00
29353;DHT22;16344;50.364;8.944;2024-03-23T06:40:16;7.80;1.00
29353;DHT22;16344;50.364;8.944;2024-03-23T06:42:42;7.80;1.00
29353;DHT22;16344;50.364;8.944;2024-03-23T06:45:10;7.90;1.00
29353;DHT22;16344;50.364;8.944;2024-03-23T06:47:36;8.00;1.00
29353;DHT22;16344;50.364;8.944;2024-03-23T06:50:03;8.10;1.00
29353;DHT22;16344;50.364;8.944;2024-03-23T06:52:30;8.00;1.00
29353;DHT22;16344;50.364;8.944;2024-03-23T06:54:56;8.00;1.00
29353;DHT22;16344;50.364;8.944;2024-03-23T06:57:22;8.10;1.00
29353;DHT22;16344;50.364;8.944;2024-03-23T06:59:48;8.10;1.00
29353;DHT22;16344;50.364;8.944;2024-03-23T07:02:13;8.00;1.00
29353;DHT22;16344;50.364;8.944;2024-03-23T07:04:39;8.10;1.00
29353;DHT22;16344;50.364;8.944;2024-03-23T07:07:05;8.20;1.00
29353;DHT22;16344;50.364;8.944;2024-03-23T07:09:31;8.30;1.00
29353;DHT22;16344;50.364;8.944;2024-03-23T07:11:57;8.40;1.00
29353;DHT22;16344;50.364;8.944;2024-03-23T07:14:25;8.20;1.00
29353;DHT22;16344;50.364;8.944;2024-03-23T07:16:52;8.20;1.00
29353;DHT22;16344;50.364;8.944;2024-03-23T07:19:18;8.20;1.00
29353;DHT22;16344;50.364;8.944;2024-03-23T07:21:45;8.20;1.00
29353;DHT22;16344;50.364;8.944;2024-03-23T07:24:11;8.20;1.00
29353;DHT22;16344;50.364;8.944;2024-03-23T07:26:38;8.20;99.90
29353;DHT22;16344;50.364;8.944;2024-03-23T07:29:05;8.20;1.00
29353;DHT22;16344;50.364;8.944;2024-03-23T07:31:32;8.20;99.90
29353;DHT22;16344;50.364;8.944;2024-03-23T07:33:58;8.20;99.90
29353;DHT22;16344;50.364;8.944;2024-03-23T07:36:24;8.20;99.90
29353;DHT22;16344;50.364;8.944;2024-03-23T07:38:49;8.20;99.90
29353;DHT22;16344;50.364;8.944;2024-03-23T07:41:16;8.10;99.90
29353;DHT22;16344;50.364;8.944;2024-03-23T07:43:43;8.00;99.90
29353;DHT22;16344;50.364;8.944;2024-03-23T07:46:09;8.10;99.90
29353;DHT22;16344;50.364;8.944;2024-03-23T07:48:37;8.00;99.90
29353;DHT22;16344;50.364;8.944;2024-03-23T07:51:09;8.10;99.90
29353;DHT22;16344;50.364;8.944;2024-03-23T07:53:36;8.00;99.90
29353;DHT22;16344;50.364;8.944;2024-03-23T07:56:07;8.20;99.90
29353;DHT22;16344;50.364;8.944;2024-03-23T07:58:34;8.30;99.90
29353;DHT22;16344;50.364;8.944;2024-03-23T08:01:06;8.30;99.90
29353;DHT22;16344;50.364;8.944;2024-03-23T08:03:36;8.50;99.90
29353;DHT22;16344;50.364;8.944;2024-03-23T08:06:13;8.70;99.90
29353;DHT22;16344;50.364;8.944;2024-03-23T08:08:40;8.90;99.90
29353;DHT22;16344;50.364;8.944;2024-03-23T08:11:26;9.10;99.90
29353;DHT22;16344;50.364;8.944;2024-03-23T08:13:52;9.10;99.90
29353;DHT22;16344;50.364;8.944;2024-03-23T08:16:18;9.10;99.90
29353;DHT22;16344;50.364;8.944;2024-03-23T08:18:44;9.30;99.90
29353;DHT22;16344;50.364;8.944;2024-03-23T08:21:09;9.30;99.90
29353;DHT22;16344;50.364;8.944;2024-03-23T08:23:36;9.40;99.90
29353;DHT22;16344;50.364;8.944;2024-03-23T08:26:09;9.20;90.00
29353;DHT22;16344;50.364;8.944;2024-03-23T08:28:37;9.20;99.90
29353;DHT22;16344;50.364;8.944;2024-03-23T08:31:11;9.10;99.90
29353;DHT22;16344;50.364;8.944;2024-03-23T08:33:37;9.20;99.90
29353;DHT22;16344;50.364;8.944;2024-03-23T08:36:07;9.40;99.90
29353;DHT22;16344;50.364;8.944;2024-03-23T08:38:35;9.40;99.90
29353;DHT22;16344;50.364;8.944;2024-03-23T08:41:03;9.40;94.40
29353;DHT22;16344;50.364;8.944;2024-03-23T08:43:31;9.40;97.70
29353;DHT22;16344;50.364;8.944;2024-03-23T08:46:13;9.40;63.90
29353;DHT22;16344;50.364;8.944;2024-03-23T08:48:44;9.40;60.40
29353;DHT22;16344;50.364;8.944;2024-03-23T08:51:11;9.20;88.10
29353;DHT22;16344;50.364;8.944;2024-03-23T08:53:39;9.20;96.20
29353;DHT22;16344;50.364;8.944;2024-03-23T08:56:06;9.20;99.90
29353;DHT22;16344;50.364;8.944;2024-03-23T08:58:34;9.20;99.90
29353;DHT22;16344;50.364;8.944;2024-03-23T09:03:33;9.20;99.90
29353;DHT22;16344;50.364;8.944;2024-03-23T09:06:21;9.40;99.90
29353;DHT22;16344;50.364;8.944;2024-03-23T09:08:48;9.60;99.90
29353;DHT22;16344;50.364;8.944;2024-03-23T09:11:14;9.70;99.20
29353;DHT22;16344;50.364;8.944;2024-03-23T09:13:41;9.70;99.90
29353;DHT22;16344;50.364;8.944;2024-03-23T09:16:07;9.60;86.30
29353;DHT22;16344;50.364;8.944;2024-03-23T09:18:35;9.60;69.60
29353;DHT22;16344;50.364;8.944;2024-03-23T09:21:02;9.40;92.90
29353;DHT22;16344;50.364;8.944;2024-03-23T09:23:28;9.40;76.40
29353;DHT22;16344;50.364;8.944;2024-03-23T09:25:53;9.50;70.10
29353;DHT22;16344;50.364;8.944;2024-03-23T09:28:19;9.60;82.50
29353;DHT22;16344;50.364;8.944;2024-03-23T09:30:44;9.90;99.90
29353;DHT22;16344;50.364;8.944;2024-03-23T09:33:27;10.00;1.00
29353;DHT22;16344;50.364;8.944;2024-03-23T09:35:55;10.20;26.40
29353;DHT22;16344;50.364;8.944;2024-03-23T09:38:24;10.40;4.00
29353;DHT22;16344;50.364;8.944;2024-03-23T09:40:54;10.60;1.00
29353;DHT22;16344;50.364;8.944;2024-03-23T09:43:21;10.80;1.00
29353;DHT22;16344;50.364;8.944;2024-03-23T09:45:49;11.10;1.00
29353;DHT22;16344;50.364;8.944;2024-03-23T09:48:15;11.40;1.00
29353;DHT22;16344;50.364;8.944;2024-03-23T09:50:42;11.60;1.00
29353;DHT22;16344;50.364;8.944;2024-03-23T09:53:09;11.70;1.00
29353;DHT22;16344;50.364;8.944;2024-03-23T09:55:35;11.70;1.00
29353;DHT22;16344;50.364;8.944;2024-03-23T09:58:02;11.60;1.00
29353;DHT22;16344;50.364;8.944;2024-03-23T10:00:27;11.70;1.00
29353;DHT22;16344;50.364;8.944;2024-03-23T10:02:56;11.70;1.00
29353;DHT22;16344;50.364;8.944;2024-03-23T10:05:23;11.60;1.00
29353;DHT22;16344;50.364;8.944;2024-03-23T10:07:53;11.70;1.00
29353;DHT22;16344;50.364;8.944;2024-03-23T10:10:21;11.70;1.00
29353;DHT22;16344;50.364;8.944;2024-03-23T10:12:49;11.70;1.00
29353;DHT22;16344;50.364;8.944;2024-03-23T10:15:22;11.70;1.00
29353;DHT22;16344;50.364;8.944;2024-03-23T10:17:48;11.80;1.00
29353;DHT22;16344;50.364;8.944;2024-03-23T10:20:19;11.70;1.00
29353;DHT22;16344;50.364;8.944;2024-03-23T10:22:46;11.50;1.00
29353;DHT22;16344;50.364;8.944;2024-03-23T10:25:11;11.50;1.00
29353;DHT22;16344;50.364;8.944;2024-03-23T10:27:37;11.50;1.00
29353;DHT22;16344;50.364;8.944;2024-03-23T10:30:12;11.40;1.00
29353;DHT22;16344;50.364;8.944;2024-03-23T10:32:38;11.10;1.00
29353;DHT22;16344;50.364;8.944;2024-03-23T10:35:20;11.00;1.00
29353;DHT22;16344;50.364;8.944;2024-03-23T10:37:48;10.70;1.00
29353;DHT22;16344;50.364;8.944;2024-03-23T10:40:15;10.40;1.00
29353;DHT22;16344;50.364;8.944;2024-03-23T10:42:41;10.20;1.00
29353;DHT22;16344;50.364;8.944;2024-03-23T10:45:07;10.10;1.00
29353;DHT22;16344;50.364;8.944;2024-03-23T10:47:35;10.00;1.00
29353;DHT22;16344;50.364;8.944;2024-03-23T10:50:01;9.40;1.00
29353;DHT22;16344;50.364;8.944;2024-03-23T10:52:28;8.60;11.40
29353;DHT22;16344;50.364;8.944;2024-03-23T10:54:57;7.80;99.90
29353;DHT22;16344;50.364;8.944;2024-03-23T10:57:33;7.50;99.90
29353;DHT22;16344;50.364;8.944;2024-03-23T11:00:02;7.40;99.90
29353;DHT22;16344;50.364;8.944;2024-03-23T11:02:28;7.30;99.90
29353;DHT22;16344;50.364;8.944;2024-03-23T11:04:55;7.40;99.90
29353;DHT22;16344;50.364;8.944;2024-03-23T11:09:49;7.80;99.90
29353;DHT22;16344;50.364;8.944;2024-03-23T11:14:48;8.30;99.90
29353;DHT22;16344;50.364;8.944;2024-03-23T11:17:18;8.60;99.90
29353;DHT22;16344;50.364;8.944;2024-03-23T11:19:44;8.90;99.90
29353;DHT22;16344;50.364;8.944;2024-03-23T11:27:42;9.40;99.90
29353;DHT22;16344;50.364;8.944;2024-03-23T11:30:15;9.50;99.90
29353;DHT22;16344;50.364;8.944;2024-03-23T11:32:54;9.60;99.90
29353;DHT22;16344;50.364;8.944;2024-03-23T11:35:31;9.60;44.70
29353;DHT22;16344;50.364;8.944;2024-03-23T11:38:06;9.70;11.30
29353;DHT22;16344;50.364;8.944;2024-03-23T11:40:39;9.80;68.30
29353;DHT22;16344;50.364;8.944;2024-03-23T11:43:10;9.90;1.00
29353;DHT22;16344;50.364;8.944;2024-03-23T11:45:45;10.00;1.00
29353;DHT22;16344;50.364;8.944;2024-03-23T11:48:12;10.00;1.00
29353;DHT22;16344;50.364;8.944;2024-03-23T11:50:43;10.00;25.10
29353;DHT22;16344;50.364;8.944;2024-03-23T11:53:19;10.10;22.10
29353;DHT22;16344;50.364;8.944;2024-03-23T11:58:16;9.90;55.40
29353;DHT22;16344;50.364;8.944;2024-03-23T12:00:42;9.90;67.20
29353;DHT22;16344;50.364;8.944;2024-03-23T12:03:08;10.00;29.20
29353;DHT22;16344;50.364;8.944;2024-03-23T12:05:37;10.00;48.00
29353;DHT22;16344;50.364;8.944;2024-03-23T12:08:36;9.90;9.50
29353;DHT22;16344;50.364;8.944;2024-03-23T12:11:08;9.80;1.00
29353;DHT22;16344;50.364;8.944;2024-03-23T12:13:35;10.00;50.30
29353;DHT22;16344;50.364;8.944;2024-03-23T12:16:11;10.10;28.90
29353;DHT22;16344;50.364;8.944;2024-03-23T12:18:37;10.20;40.00
29353;DHT22;16344;50.364;8.944;2024-03-23T12:21:04;10.30;43.90
29353;DHT22;16344;50.364;8.944;2024-03-23T12:23:29;10.50;7.80
29353;DHT22;16344;50.364;8.944;2024-03-23T12:25:55;10.60;9.50
29353;DHT22;16344;50.364;8.944;2024-03-23T12:28:20;10.70;1.00
29353;DHT22;16344;50.364;8.944;2024-03-23T12:30:46;10.80;1.00
29353;DHT22;16344;50.364;8.944;2024-03-23T12:33:11;10.70;1.00
29353;DHT22;16344;50.364;8.944;2024-03-23T12:35:37;10.80;1.00
29353;DHT22;16344;50.364;8.944;2024-03-23T12:38:02;11.00;1.00
29353;DHT22;16344;50.364;8.944;2024-03-23T12:40:28;11.20;1.00
29353;DHT22;16344;50.364;8.944;2024-03-23T12:42:54;11.10;1.00
29353;DHT22;16344;50.364;8.944;2024-03-23T12:45:19;11.00;1.00
29353;DHT22;16344;50.364;8.944;2024-03-23T12:47:45;11.00;1.00
29353;DHT22;16344;50.364;8.944;2024-03-23T12:50:11;10.90;1.00
29353;DHT22;16344;50.364;8.944;2024-03-23T12:52:37;10.80;1.00
29353;DHT22;16344;50.364;8.944;2024-03-23T12:55:03;10.80;1.00
29353;DHT22;16344;50.364;8.944;2024-03-23T12:57:31;10.90;28.90
29353;DHT22;16344;50.364;8.944;2024-03-23T12:59:57;10.70;10.40
29353;DHT22;16344;50.364;8.944;2024-03-23T13:02:22;10.70;33.80
29353;DHT22;16344;50.364;8.944;2024-03-23T13:04:52;10.60;1.00
29353;DHT22;16344;50.364;8.944;2024-03-23T13:07:18;10.30;45.00
29353;DHT22;16344;50.364;8.944;2024-03-23T13:09:44;9.80;99.90
29353;DHT22;16344;50.364;8.944;2024-03-23T13:12:10;9.30;99.90
29353;DHT22;16344;50.364;8.944;2024-03-23T13:14:39;9.10;99.90
29353;DHT22;16344;50.364;8.944;2024-03-23T13:17:05;8.50;99.90
29353;DHT22;16344;50.364;8.944;2024-03-23T13:19:31;8.20;99.90
29353;DHT22;16344;50.364;8.944;2024-03-23T13:22:00;7.80;99.90
29353;DHT22;16344;50.364;8.944;2024-03-23T13:24:27;7.70;99.90
29353;DHT22;16344;50.364;8.944;2024-03-23T13:26:54;7.70;99.90
29353;DHT22;16344;50.364;8.944;2024-03-23T13:29:20;7.70;99.90
29353;DHT22;16344;50.364;8.944;2024-03-23T13:31:47;7.80;99.90
29353;DHT22;16344;50.364;8.944;2024-03-23T13:34:13;7.80;99.90
29353;DHT22;16344;50.364;8.944;2024-03-23T13:36:40;7.80;99.90
29353;DHT22;16344;50.364;8.944;2024-03-23T13:39:06;7.70;99.90
29353;DHT22;16344;50.364;8.944;2024-03-23T13:41:45;7.70;99.90
29353;DHT22;16344;50.364;8.944;2024-03-23T13:44:12;7.60;99.90
29353;DHT22;16344;50.364;8.944;2024-03-23T13:46:39;7.50;99.90
29353;DHT22;16344;50.364;8.944;2024-03-23T13:49:05;7.20;99.90
29353;DHT22;16344;50.364;8.944;2024-03-23T13:51:31;7.10;99.90
29353;DHT22;16344;50.364;8.944;2024-03-23T13:53:57;7.10;99.90
29353;DHT22;16344;50.364;8.944;2024-03-23T13:56:26;7.20;1.00
29353;DHT22;16344;50.364;8.944;2024-03-23T13:58:53;7.30;1.00
29353;DHT22;16344;50.364;8.944;2024-03-23T14:01:19;7.50;1.00
29353;DHT22;16344;50.364;8.944;2024-03-23T14:03:44;7.70;1.00
29353;DHT22;16344;50.364;8.944;2024-03-23T14:06:10;7.80;1.00
29353;DHT22;16344;50.364;8.944;2024-03-23T14:08:37;8.00;1.00
29353;DHT22;16344;50.364;8.944;2024-03-23T14:11:05;8.00;1.00
29353;DHT22;16344;50.364;8.944;2024-03-23T14:13:31;8.10;1.00
29353;DHT22;16344;50.364;8.944;2024-03-23T14:15:57;8.20;99.90
29353;DHT22;16344;50.364;8.944;2024-03-23T14:18:22;8.20;99.90
29353;DHT22;16344;50.364;8.944;2024-03-23T14:20:49;8.20;1.00
29353;DHT22;16344;50.364;8.944;2024-03-23T14:23:15;8.30;99.90
29353;DHT22;16344;50.364;8.944;2024-03-23T14:25:40;8.40;1.00
29353;DHT22;16344;50.364;8.944;2024-03-23T14:28:06;8.40;99.90
29353;DHT22;16344;50.364;8.944;2024-03-23T14:30:33;8.40;99.90
29353;DHT22;16344;50.364;8.944;2024-03-23T14:32:59;8.50;99.90
29353;DHT22;16344;50.364;8.944;2024-03-23T14:35:24;8.50;99.90
29353;DHT22;16344;50.364;8.944;2024-03-23T14:37:52;8.50;99.90
29353;DHT22;16344;50.364;8.944;2024-03-23T14:40:18;8.50;99.90
29353;DHT22;16344;50.364;8.944;2024-03-23T14:42:44;8.70;1.00
29353;DHT22;16344;50.364;8.944;2024-03-23T14:45:09;8.80;99.90
29353;DHT22;16344;50.364;8.944;2024-03-23T14:47:36;8.70;99.90
29353;DHT22;16344;50.364;8.944;2024-03-23T14:50:02;8.70;99.90
29353;DHT22;16344;50.364;8.944;2024-03-23T14:52:28;8.70;99.90
29353;DHT22;16344;50.364;8.944;2024-03-23T14:54:54;8.80;99.90
29353;DHT22;16344;50.364;8.944;2024-03-23T14:57:21;8.80;99.90
29353;DHT22;16344;50.364;8.944;2024-03-23T14:59:47;8.80;99.90
29353;DHT22;16344;50.364;8.944;2024-03-23T15:02:13;8.90;99.90
29353;DHT22;16344;50.364;8.944;2024-03-23T15:04:38;8.90;99.90
29353;DHT22;16344;50.364;8.944;2024-03-23T15:07:07;8.90;99.90
29353;DHT22;16344;50.364;8.944;2024-03-23T15:09:32;8.90;99.90
29353;DHT22;16344;50.364;8.944;2024-03-23T15:11:58;8.80;99.90
29353;DHT22;16344;50.364;8.944;2024-03-23T15:14:24;9.00;99.90
29353;DHT22;16344;50.364;8.944;2024-03-23T15:16:49;9.10;99.90
29353;DHT22;16344;50.364;8.944;2024-03-23T15:19:16;9.10;99.90
29353;DHT22;16344;50.364;8.944;2024-03-23T15:21:43;9.10;99.90
29353;DHT22;16344;50.364;8.944;2024-03-23T15:24:08;9.00;32.00
29353;DHT22;16344;50.364;8.944;2024-03-23T15:26:36;9.00;62.20
29353;DHT22;16344;50.364;8.944;2024-03-23T15:29:02;9.00;18.10
29353;DHT22;16344;50.364;8.944;2024-03-23T15:31:28;9.00;45.00
29353;DHT22;16344;50.364;8.944;2024-03-23T15:33:55;9.00;56.10
29353;DHT22;16344;50.364;8.944;2024-03-23T15:36:22;9.00;94.70
29353;DHT22;16344;50.364;8.944;2024-03-23T15:38:48;9.10;44.80
29353;DHT22;16344;50.364;8.944;2024-03-23T15:41:15;9.10;13.20
29353;DHT22;16344;50.364;8.944;2024-03-23T15:43:41;9.00;14.90
29353;DHT22;16344;50.364;8.944;2024-03-23T15:46:07;9.00;24.80
29353;DHT22;16344;50.364;8.944;2024-03-23T15:48:35;9.00;14.00
29353;DHT22;16344;50.364;8.944;2024-03-23T15:51:03;9.10;15.90
29353;DHT22;16344;50.364;8.944;2024-03-23T15:53:32;9.00;11.10
29353;DHT22;16344;50.364;8.944;2024-03-23T15:56:02;9.10;19.90
29353;DHT22;16344;50.364;8.944;2024-03-23T15:58:30;9.00;14.30
29353;DHT22;16344;50.364;8.944;2024-03-23T16:01:03;9.10;8.00
29353;DHT22;16344;50.364;8.944;2024-03-23T16:03:31;9.00;21.40
29353;DHT22;16344;50.364;8.944;2024-03-23T16:06:06;9.00;1.60
29353;DHT22;16344;50.364;8.944;2024-03-23T16:08:35;9.00;42.10
29353;DHT22;16344;50.364;8.944;2024-03-23T16:11:06;9.10;17.10
29353;DHT22;16344;50.364;8.944;2024-03-23T16:13:33;9.10;6.90
29353;DHT22;16344;50.364;8.944;2024-03-23T16:16:03;9.10;1.00
29353;DHT22;16344;50.364;8.944;2024-03-23T16:18:33;8.90;4.40
29353;DHT22;16344;50.364;8.944;2024-03-23T16:21:02;8.70;1.00
29353;DHT22;16344;50.364;8.944;2024-03-23T16:23:29;8.60;1.00
29353;DHT22;16344;50.364;8.944;2024-03-23T16:25:57;8.40;1.00
29353;DHT22;16344;50.364;8.944;2024-03-23T16:28:33;8.50;1.00
29353;DHT22;16344;50.364;8.944;2024-03-23T16:31:05;8.60;1.00
29353;DHT22;16344;50.364;8.944;2024-03-23T16:33:38;8.70;8.30
29353;DHT22;16344;50.364;8.944;2024-03-23T16:36:08;8.80;11.50
29353;DHT22;16344;50.364;8.944;2024-03-23T16:38:36;8.80;16.40
29353;DHT22;16344;50.364;8.944;2024-03-23T16:41:03;9.00;13.10
29353;DHT22;16344;50.364;8.944;2024-03-23T16:43:34;9.00;1.00
29353;DHT22;16344;50.364;8.944;2024-03-23T16:46:06;8.90;1.00
29353;DHT22;16344;50.364;8.944;2024-03-23T16:48:32;8.80;1.00
29353;DHT22;16344;50.364;8.944;2024-03-23T16:51:00;8.70;3.50
29353;DHT22;16344;50.364;8.944;2024-03-23T16:53:28;8.70;1.00
29353;DHT22;16344;50.364;8.944;2024-03-23T16:56:00;8.50;1.00
29353;DHT22;16344;50.364;8.944;2024-03-23T16:58:29;8.40;9.50